sensor_id;sensor_type;location;lat;lon;timestamp;P1;durP1;ratioP1;P2;durP2;ratioP2
48161;SDS011;33950;48.154;16.316;2023-01-16T00:02:17;0.93;;;0.70;;
48161;SDS011;33950;48.154;16.316;2023-01-16T00:05:04;1.40;;;0.75;;
48161;SDS011;33950;48.154;16.316;2023-01-16T00:07:50;1.25;;;0.68;;
48161;SDS011;33950;48.154;16.316;2023-01-16T00:10:36;0.73;;;0.57;;
48161;SDS011;33950;48.154;16.316;2023-01-16T00:13:23;1.27;;;0.60;;
48161;SDS011;33950;48.154;16.316;2023-01-16T00:16:09;0.88;;;0.57;;
48161;SDS011;33950;48.154;16.316;2023-01-16T00:18:56;1.15;;;0.70;;
48161;SDS011;33950;48.154;16.316;2023-01-16T00:21:42;7.07;;;1.60;;
48161;SDS011;33950;48.154;16.316;2023-01-16T00:24:29;1.63;;;0.77;;
48161;SDS011;33950;48.154;16.316;2023-01-16T00:27:15;0.63;;;0.63;;
48161;SDS011;33950;48.154;16.316;2023-01-16T00:30:01;1.30;;;0.70;;
48161;SDS011;33950;48.154;16.316;2023-01-16T00:32:48;1.60;;;0.65;;
48161;SDS011;33950;48.154;16.316;2023-01-16T00:35:36;0.80;;;0.57;;
48161;SDS011;33950;48.154;16.316;2023-01-16T00:38:22;0.82;;;0.60;;
48161;SDS011;33950;48.154;16.316;2023-01-16T00:41:08;5.55;;;0.60;;
48161;SDS011;33950;48.154;16.316;2023-01-16T00:43:54;1.02;;;0.60;;
48161;SDS011;33950;48.154;16.316;2023-01-16T00:46:44;1.38;;;0.70;;
48161;SDS011;33950;48.154;16.316;2023-01-16T00:49:30;2.70;;;0.88;;
48161;SDS011;33950;48.154;16.316;2023-01-16T00:52:17;1.02;;;0.60;;
48161;SDS011;33950;48.154;16.316;2023-01-16T00:55:04;1.38;;;0.50;;
48161;SDS011;33950;48.154;16.316;2023-01-16T00:57:50;1.30;;;0.50;;
48161;SDS011;33950;48.154;16.316;2023-01-16T01:00:37;0.95;;;0.43;;
48161;SDS011;33950;48.154;16.316;2023-01-16T01:03:23;1.85;;;0.50;;
48161;SDS011;33950;48.154;16.316;2023-01-16T01:06:09;2.42;;;0.77;;
48161;SDS011;33950;48.154;16.316;2023-01-16T01:09:00;0.88;;;0.40;;
48161;SDS011;33950;48.154;16.316;2023-01-16T01:11:46;0.80;;;0.60;;
48161;SDS011;33950;48.154;16.316;2023-01-16T01:14:32;4.05;;;0.77;;
48161;SDS011;33950;48.154;16.316;2023-01-16T01:17:18;0.77;;;0.50;;
48161;SDS011;33950;48.154;16.316;2023-01-16T01:20:05;0.47;;;0.38;;
48161;SDS011;33950;48.154;16.316;2023-01-16T01:22:52;0.40;;;0.40;;
48161;SDS011;33950;48.154;16.316;2023-01-16T01:25:39;3.10;;;0.57;;
48161;SDS011;33950;48.154;16.316;2023-01-16T01:28:25;1.63;;;0.77;;
48161;SDS011;33950;48.154;16.316;2023-01-16T01:31:12;0.75;;;0.65;;
48161;SDS011;33950;48.154;16.316;2023-01-16T01:33:58;1.00;;;0.52;;
48161;SDS011;33950;48.154;16.316;2023-01-16T01:36:44;2.35;;;0.50;;
48161;SDS011;33950;48.154;16.316;2023-01-16T01:39:31;0.88;;;0.38;;
48161;SDS011;33950;48.154;16.316;2023-01-16T01:42:18;1.85;;;0.40;;
48161;SDS011;33950;48.154;16.316;2023-01-16T01:45:23;0.77;;;0.35;;
48161;SDS011;33950;48.154;16.316;2023-01-16T01:48:14;0.82;;;0.32;;
48161;SDS011;33950;48.154;16.316;2023-01-16T01:51:07;0.75;;;0.63;;
48161;SDS011;33950;48.154;16.316;2023-01-16T01:53:58;1.23;;;0.50;;
48161;SDS011;33950;48.154;16.316;2023-01-16T01:56:48;0.40;;;0.40;;
48161;SDS011;33950;48.154;16.316;2023-01-16T01:59:41;1.02;;;0.32;;
48161;SDS011;33950;48.154;16.316;2023-01-16T02:02:31;1.13;;;0.30;;
48161;SDS011;33950;48.154;16.316;2023-01-16T02:05:21;0.30;;;0.30;;
48161;SDS011;33950;48.154;16.316;2023-01-16T02:08:11;1.52;;;0.30;;
48161;SDS011;33950;48.154;16.316;2023-01-16T02:11:01;2.47;;;0.47;;
48161;SDS011;33950;48.154;16.316;2023-01-16T02:13:49;2.30;;;0.40;;
48161;SDS011;33950;48.154;16.316;2023-01-16T02:16:37;2.60;;;0.30;;
48161;SDS011;33950;48.154;16.316;2023-01-16T02:19:43;3.47;;;0.47;;
48161;SDS011;33950;48.154;16.316;2023-01-16T02:26:13;0.80;;;0.40;;
48161;SDS011;33950;48.154;16.316;2023-01-16T02:29:40;0.85;;;0.50;;
48161;SDS011;33950;48.154;16.316;2023-01-16T02:32:43;1.52;;;0.32;;
48161;SDS011;33950;48.154;16.316;2023-01-16T02:35:49;1.70;;;0.40;;
48161;SDS011;33950;48.154;16.316;2023-01-16T02:38:46;1.35;;;0.40;;
48161;SDS011;33950;48.154;16.316;2023-01-16T02:41:44;0.73;;;0.30;;
48161;SDS011;33950;48.154;16.316;2023-01-16T02:44:36;1.63;;;0.30;;
48161;SDS011;33950;48.154;16.316;2023-01-16T02:47:27;5.45;;;0.35;;
48161;SDS011;33950;48.154;16.316;2023-01-16T02:50:26;3.30;;;0.68;;
48161;SDS011;33950;48.154;16.316;2023-01-16T02:53:16;0.75;;;0.35;;
48161;SDS011;33950;48.154;16.316;2023-01-16T02:56:06;1.38;;;0.47;;
48161;SDS011;33950;48.154;16.316;2023-01-16T02:58:58;2.78;;;0.40;;
48161;SDS011;33950;48.154;16.316;2023-01-16T03:01:45;1.42;;;0.43;;
48161;SDS011;33950;48.154;16.316;2023-01-16T03:04:42;0.77;;;0.30;;
48161;SDS011;33950;48.154;16.316;2023-01-16T03:07:35;0.20;;;0.20;;
48161;SDS011;33950;48.154;16.316;2023-01-16T03:10:47;1.45;;;0.75;;
48161;SDS011;33950;48.154;16.316;2023-01-16T03:16:20;0.65;;;0.20;;
48161;SDS011;33950;48.154;16.316;2023-01-16T03:19:16;2.83;;;0.57;;
48161;SDS011;33950;48.154;16.316;2023-01-16T03:22:10;1.08;;;0.30;;
48161;SDS011;33950;48.154;16.316;2023-01-16T03:25:05;1.15;;;0.57;;
48161;SDS011;33950;48.154;16.316;2023-01-16T03:28:04;0.68;;;0.30;;
48161;SDS011;33950;48.154;16.316;2023-01-16T03:30:57;1.25;;;0.45;;
48161;SDS011;33950;48.154;16.316;2023-01-16T03:33:51;2.88;;;0.80;;
48161;SDS011;33950;48.154;16.316;2023-01-16T03:36:49;2.17;;;0.68;;
48161;SDS011;33950;48.154;16.316;2023-01-16T03:39:37;2.15;;;0.93;;
48161;SDS011;33950;48.154;16.316;2023-01-16T03:42:29;2.53;;;0.70;;
48161;SDS011;33950;48.154;16.316;2023-01-16T03:45:21;2.88;;;0.88;;
48161;SDS011;33950;48.154;16.316;2023-01-16T03:48:11;5.63;;;1.08;;
48161;SDS011;33950;48.154;16.316;2023-01-16T03:51:05;2.60;;;1.00;;
48161;SDS011;33950;48.154;16.316;2023-01-16T03:53:55;2.83;;;1.17;;
48161;SDS011;33950;48.154;16.316;2023-01-16T03:56:45;2.45;;;0.70;;
48161;SDS011;33950;48.154;16.316;2023-01-16T03:59:37;1.02;;;0.70;;
48161;SDS011;33950;48.154;16.316;2023-01-16T04:02:25;1.30;;;0.55;;
48161;SDS011;33950;48.154;16.316;2023-01-16T04:05:16;0.90;;;0.47;;
48161;SDS011;33950;48.154;16.316;2023-01-16T04:08:06;5.80;;;0.70;;
48161;SDS011;33950;48.154;16.316;2023-01-16T04:10:57;1.73;;;0.57;;
48161;SDS011;33950;48.154;16.316;2023-01-16T04:13:43;1.40;;;0.70;;
48161;SDS011;33950;48.154;16.316;2023-01-16T04:16:35;0.95;;;0.60;;
48161;SDS011;33950;48.154;16.316;2023-01-16T04:19:22;2.47;;;0.60;;
48161;SDS011;33950;48.154;16.316;2023-01-16T04:22:17;2.15;;;0.80;;
48161;SDS011;33950;48.154;16.316;2023-01-16T04:25:05;2.60;;;0.68;;
48161;SDS011;33950;48.154;16.316;2023-01-16T04:27:53;1.35;;;0.70;;
48161;SDS011;33950;48.154;16.316;2023-01-16T04:30:39;2.47;;;1.00;;
48161;SDS011;33950;48.154;16.316;2023-01-16T04:33:27;5.85;;;0.80;;
48161;SDS011;33950;48.154;16.316;2023-01-16T04:36:13;1.23;;;0.77;;
48161;SDS011;33950;48.154;16.316;2023-01-16T04:38:59;2.50;;;0.65;;
48161;SDS011;33950;48.154;16.316;2023-01-16T04:41:45;2.85;;;0.75;;
48161;SDS011;33950;48.154;16.316;2023-01-16T04:44:35;2.60;;;0.75;;
48161;SDS011;33950;48.154;16.316;2023-01-16T04:47:22;3.33;;;0.85;;
48161;SDS011;33950;48.154;16.316;2023-01-16T04:50:10;2.30;;;1.05;;
48161;SDS011;33950;48.154;16.316;2023-01-16T04:52:56;2.28;;;0.80;;
48161;SDS011;33950;48.154;16.316;2023-01-16T04:55:43;2.95;;;0.90;;
48161;SDS011;33950;48.154;16.316;2023-01-16T04:58:29;1.98;;;1.00;;
48161;SDS011;33950;48.154;16.316;2023-01-16T05:01:15;3.72;;;1.33;;
48161;SDS011;33950;48.154;16.316;2023-01-16T05:04:02;1.52;;;0.60;;
48161;SDS011;33950;48.154;16.316;2023-01-16T05:06:50;1.20;;;0.50;;
48161;SDS011;33950;48.154;16.316;2023-01-16T05:09:36;1.17;;;0.50;;
48161;SDS011;33950;48.154;16.316;2023-01-16T05:12:22;1.92;;;0.50;;
48161;SDS011;33950;48.154;16.316;2023-01-16T05:15:09;4.47;;;0.50;;
48161;SDS011;33950;48.154;16.316;2023-01-16T05:17:55;3.92;;;0.60;;
48161;SDS011;33950;48.154;16.316;2023-01-16T05:20:42;2.83;;;0.38;;
48161;SDS011;33950;48.154;16.316;2023-01-16T05:23:29;0.95;;;0.47;;
48161;SDS011;33950;48.154;16.316;2023-01-16T05:26:16;5.57;;;0.70;;
48161;SDS011;33950;48.154;16.316;2023-01-16T05:29:03;1.52;;;0.25;;
48161;SDS011;33950;48.154;16.316;2023-01-16T05:31:49;3.58;;;0.50;;
48161;SDS011;33950;48.154;16.316;2023-01-16T05:34:35;1.40;;;0.73;;
48161;SDS011;33950;48.154;16.316;2023-01-16T05:37:21;1.88;;;0.70;;
48161;SDS011;33950;48.154;16.316;2023-01-16T05:40:09;2.58;;;0.30;;
48161;SDS011;33950;48.154;16.316;2023-01-16T05:42:56;1.38;;;0.30;;
48161;SDS011;33950;48.154;16.316;2023-01-16T05:45:42;0.68;;;0.30;;
48161;SDS011;33950;48.154;16.316;2023-01-16T05:48:28;5.68;;;0.30;;
48161;SDS011;33950;48.154;16.316;2023-01-16T05:51:16;0.60;;;0.30;;
48161;SDS011;33950;48.154;16.316;2023-01-16T05:54:02;1.75;;;0.10;;
48161;SDS011;33950;48.154;16.316;2023-01-16T05:56:50;1.88;;;0.20;;
48161;SDS011;33950;48.154;16.316;2023-01-16T05:59:36;2.47;;;0.52;;
48161;SDS011;33950;48.154;16.316;2023-01-16T06:02:22;2.67;;;0.57;;
48161;SDS011;33950;48.154;16.316;2023-01-16T06:05:08;1.10;;;0.43;;
48161;SDS011;33950;48.154;16.316;2023-01-16T06:07:55;2.53;;;0.20;;
48161;SDS011;33950;48.154;16.316;2023-01-16T06:10:44;4.68;;;0.40;;
48161;SDS011;33950;48.154;16.316;2023-01-16T06:13:31;1.40;;;0.20;;
48161;SDS011;33950;48.154;16.316;2023-01-16T06:16:18;0.52;;;0.15;;
48161;SDS011;33950;48.154;16.316;2023-01-16T06:19:04;1.40;;;0.20;;
48161;SDS011;33950;48.154;16.316;2023-01-16T06:21:50;0.20;;;0.08;;
48161;SDS011;33950;48.154;16.316;2023-01-16T06:24:36;2.50;;;0.20;;
48161;SDS011;33950;48.154;16.316;2023-01-16T06:27:22;0.25;;;0.10;;
48161;SDS011;33950;48.154;16.316;2023-01-16T06:30:10;2.55;;;0.40;;
48161;SDS011;33950;48.154;16.316;2023-01-16T06:32:56;0.50;;;0.32;;
48161;SDS011;33950;48.154;16.316;2023-01-16T06:35:43;1.88;;;0.45;;
48161;SDS011;33950;48.154;16.316;2023-01-16T06:38:29;2.13;;;0.68;;
48161;SDS011;33950;48.154;16.316;2023-01-16T06:41:15;1.60;;;0.45;;
48161;SDS011;33950;48.154;16.316;2023-01-16T06:44:01;1.77;;;0.30;;
48161;SDS011;33950;48.154;16.316;2023-01-16T06:46:49;1.98;;;0.43;;
48161;SDS011;33950;48.154;16.316;2023-01-16T06:49:35;0.77;;;0.30;;
48161;SDS011;33950;48.154;16.316;2023-01-16T06:52:21;1.48;;;0.40;;
48161;SDS011;33950;48.154;16.316;2023-01-16T06:55:07;0.88;;;0.47;;
48161;SDS011;33950;48.154;16.316;2023-01-16T06:57:54;1.63;;;0.50;;
48161;SDS011;33950;48.154;16.316;2023-01-16T07:00:40;7.53;;;0.73;;
48161;SDS011;33950;48.154;16.316;2023-01-16T07:03:27;0.98;;;0.60;;
48161;SDS011;33950;48.154;16.316;2023-01-16T07:06:14;2.13;;;0.80;;
48161;SDS011;33950;48.154;16.316;2023-01-16T07:09:00;1.55;;;0.80;;
48161;SDS011;33950;48.154;16.316;2023-01-16T07:11:46;3.95;;;0.88;;
48161;SDS011;33950;48.154;16.316;2023-01-16T07:14:33;1.67;;;0.77;;
48161;SDS011;33950;48.154;16.316;2023-01-16T07:17:37;3.40;;;0.60;;
48161;SDS011;33950;48.154;16.316;2023-01-16T07:20:43;5.10;;;0.60;;
48161;SDS011;33950;48.154;16.316;2023-01-16T07:26:43;4.50;;;0.98;;
48161;SDS011;33950;48.154;16.316;2023-01-16T07:29:33;3.88;;;1.20;;
48161;SDS011;33950;48.154;16.316;2023-01-16T07:32:20;4.88;;;0.95;;
48161;SDS011;33950;48.154;16.316;2023-01-16T07:35:07;3.15;;;1.02;;
48161;SDS011;33950;48.154;16.316;2023-01-16T07:37:55;4.25;;;1.10;;
48161;SDS011;33950;48.154;16.316;2023-01-16T07:40:42;3.00;;;1.00;;
48161;SDS011;33950;48.154;16.316;2023-01-16T07:43:28;2.17;;;1.00;;
48161;SDS011;33950;48.154;16.316;2023-01-16T07:46:14;9.48;;;1.02;;
48161;SDS011;33950;48.154;16.316;2023-01-16T07:49:00;6.47;;;1.25;;
48161;SDS011;33950;48.154;16.316;2023-01-16T07:51:46;5.88;;;2.63;;
48161;SDS011;33950;48.154;16.316;2023-01-16T07:54:34;2.47;;;0.95;;
48161;SDS011;33950;48.154;16.316;2023-01-16T07:57:21;1.95;;;1.00;;
48161;SDS011;33950;48.154;16.316;2023-01-16T08:00:08;5.57;;;1.17;;
48161;SDS011;33950;48.154;16.316;2023-01-16T08:02:55;4.45;;;1.10;;
48161;SDS011;33950;48.154;16.316;2023-01-16T08:05:41;2.05;;;0.85;;
48161;SDS011;33950;48.154;16.316;2023-01-16T08:08:28;3.30;;;1.23;;
48161;SDS011;33950;48.154;16.316;2023-01-16T08:11:16;1.85;;;1.00;;
48161;SDS011;33950;48.154;16.316;2023-01-16T08:14:20;7.75;;;1.02;;
48161;SDS011;33950;48.154;16.316;2023-01-16T08:17:06;2.88;;;0.77;;
48161;SDS011;33950;48.154;16.316;2023-01-16T08:19:52;3.20;;;1.00;;
48161;SDS011;33950;48.154;16.316;2023-01-16T08:22:42;6.07;;;1.60;;
48161;SDS011;33950;48.154;16.316;2023-01-16T08:25:29;9.68;;;2.35;;
48161;SDS011;33950;48.154;16.316;2023-01-16T08:28:16;6.75;;;1.80;;
48161;SDS011;33950;48.154;16.316;2023-01-16T08:31:03;4.00;;;1.10;;
48161;SDS011;33950;48.154;16.316;2023-01-16T08:33:52;6.53;;;1.38;;
48161;SDS011;33950;48.154;16.316;2023-01-16T08:36:39;6.95;;;2.45;;
48161;SDS011;33950;48.154;16.316;2023-01-16T08:39:25;3.10;;;1.42;;
48161;SDS011;33950;48.154;16.316;2023-01-16T08:42:12;3.10;;;1.45;;
48161;SDS011;33950;48.154;16.316;2023-01-16T08:45:18;2.08;;;0.98;;
48161;SDS011;33950;48.154;16.316;2023-01-16T08:48:23;2.17;;;1.00;;
48161;SDS011;33950;48.154;16.316;2023-01-16T08:51:29;4.35;;;1.10;;
48161;SDS011;33950;48.154;16.316;2023-01-16T08:54:16;3.28;;;1.10;;
48161;SDS011;33950;48.154;16.316;2023-01-16T08:57:02;2.25;;;0.90;;
48161;SDS011;33950;48.154;16.316;2023-01-16T08:59:48;4.43;;;1.60;;
48161;SDS011;33950;48.154;16.316;2023-01-16T09:02:36;6.13;;;1.80;;
48161;SDS011;33950;48.154;16.316;2023-01-16T09:05:23;4.43;;;1.38;;
48161;SDS011;33950;48.154;16.316;2023-01-16T09:08:10;5.80;;;1.50;;
48161;SDS011;33950;48.154;16.316;2023-01-16T09:10:56;5.50;;;1.17;;
48161;SDS011;33950;48.154;16.316;2023-01-16T09:14:01;4.95;;;2.00;;
48161;SDS011;33950;48.154;16.316;2023-01-16T09:16:47;2.60;;;1.10;;
48161;SDS011;33950;48.154;16.316;2023-01-16T09:19:34;5.65;;;1.30;;
48161;SDS011;33950;48.154;16.316;2023-01-16T09:22:21;3.30;;;0.90;;
48161;SDS011;33950;48.154;16.316;2023-01-16T09:25:07;2.80;;;0.95;;
48161;SDS011;33950;48.154;16.316;2023-01-16T09:27:54;1.85;;;0.88;;
48161;SDS011;33950;48.154;16.316;2023-01-16T09:30:40;7.15;;;1.00;;
48161;SDS011;33950;48.154;16.316;2023-01-16T09:33:26;2.08;;;0.85;;
48161;SDS011;33950;48.154;16.316;2023-01-16T09:36:14;4.72;;;1.02;;
48161;SDS011;33950;48.154;16.316;2023-01-16T09:39:00;4.70;;;1.23;;
48161;SDS011;33950;48.154;16.316;2023-01-16T09:41:49;1.85;;;0.70;;
48161;SDS011;33950;48.154;16.316;2023-01-16T09:45:02;2.30;;;0.68;;
48161;SDS011;33950;48.154;16.316;2023-01-16T09:47:51;2.10;;;0.90;;
48161;SDS011;33950;48.154;16.316;2023-01-16T09:50:42;3.28;;;1.33;;
48161;SDS011;33950;48.154;16.316;2023-01-16T09:53:37;2.47;;;1.00;;
48161;SDS011;33950;48.154;16.316;2023-01-16T09:56:45;8.52;;;1.77;;
48161;SDS011;33950;48.154;16.316;2023-01-16T09:59:53;4.75;;;1.67;;
48161;SDS011;33950;48.154;16.316;2023-01-16T10:02:40;2.90;;;0.85;;
48161;SDS011;33950;48.154;16.316;2023-01-16T10:05:27;1.38;;;0.65;;
48161;SDS011;33950;48.154;16.316;2023-01-16T10:08:19;6.25;;;1.65;;
48161;SDS011;33950;48.154;16.316;2023-01-16T10:11:16;1.27;;;0.43;;
48161;SDS011;33950;48.154;16.316;2023-01-16T10:14:15;1.10;;;0.63;;
48161;SDS011;33950;48.154;16.316;2023-01-16T10:17:23;1.92;;;0.75;;
48161;SDS011;33950;48.154;16.316;2023-01-16T10:20:23;6.82;;;0.47;;
48161;SDS011;33950;48.154;16.316;2023-01-16T10:23:29;4.55;;;0.80;;
48161;SDS011;33950;48.154;16.316;2023-01-16T10:26:28;3.55;;;0.70;;
48161;SDS011;33950;48.154;16.316;2023-01-16T10:29:17;2.85;;;0.55;;
48161;SDS011;33950;48.154;16.316;2023-01-16T10:32:10;4.82;;;1.30;;
48161;SDS011;33950;48.154;16.316;2023-01-16T10:35:02;1.60;;;1.02;;
48161;SDS011;33950;48.154;16.316;2023-01-16T10:37:54;4.07;;;0.90;;
48161;SDS011;33950;48.154;16.316;2023-01-16T10:40:47;5.00;;;1.25;;
48161;SDS011;33950;48.154;16.316;2023-01-16T10:43:39;1.02;;;0.57;;
48161;SDS011;33950;48.154;16.316;2023-01-16T10:46:44;4.88;;;0.90;;
48161;SDS011;33950;48.154;16.316;2023-01-16T10:49:48;1.92;;;0.77;;
48161;SDS011;33950;48.154;16.316;2023-01-16T10:52:34;4.07;;;0.70;;
48161;SDS011;33950;48.154;16.316;2023-01-16T10:55:21;1.17;;;0.50;;
48161;SDS011;33950;48.154;16.316;2023-01-16T10:58:12;1.60;;;0.60;;
48161;SDS011;33950;48.154;16.316;2023-01-16T11:01:11;4.95;;;0.90;;
48161;SDS011;33950;48.154;16.316;2023-01-16T11:03:59;3.30;;;0.80;;
48161;SDS011;33950;48.154;16.316;2023-01-16T11:06:46;1.30;;;0.47;;
48161;SDS011;33950;48.154;16.316;2023-01-16T11:09:32;3.08;;;0.73;;
48161;SDS011;33950;48.154;16.316;2023-01-16T11:12:23;2.92;;;1.05;;
48161;SDS011;33950;48.154;16.316;2023-01-16T11:15:30;4.50;;;0.95;;
48161;SDS011;33950;48.154;16.316;2023-01-16T11:18:36;1.30;;;0.60;;
48161;SDS011;33950;48.154;16.316;2023-01-16T11:21:24;1.40;;;0.68;;
48161;SDS011;33950;48.154;16.316;2023-01-16T11:24:14;1.13;;;0.80;;
48161;SDS011;33950;48.154;16.316;2023-01-16T11:27:04;2.88;;;0.90;;
48161;SDS011;33950;48.154;16.316;2023-01-16T11:30:02;2.25;;;1.08;;
48161;SDS011;33950;48.154;16.316;2023-01-16T11:32:52;3.70;;;1.00;;
48161;SDS011;33950;48.154;16.316;2023-01-16T11:35:41;1.73;;;0.93;;
48161;SDS011;33950;48.154;16.316;2023-01-16T11:38:33;2.25;;;1.00;;
48161;SDS011;33950;48.154;16.316;2023-01-16T11:41:24;6.70;;;1.17;;
48161;SDS011;33950;48.154;16.316;2023-01-16T11:44:15;2.50;;;1.38;;
48161;SDS011;33950;48.154;16.316;2023-01-16T11:47:22;3.15;;;1.40;;
48161;SDS011;33950;48.154;16.316;2023-01-16T11:50:21;1.90;;;1.17;;
48161;SDS011;33950;48.154;16.316;2023-01-16T11:53:14;3.15;;;1.55;;
48161;SDS011;33950;48.154;16.316;2023-01-16T11:56:11;4.95;;;2.35;;
48161;SDS011;33950;48.154;16.316;2023-01-16T11:59:26;2.78;;;1.75;;
48161;SDS011;33950;48.154;16.316;2023-01-16T12:02:41;3.63;;;1.90;;
48161;SDS011;33950;48.154;16.316;2023-01-16T12:05:47;4.18;;;2.42;;
48161;SDS011;33950;48.154;16.316;2023-01-16T12:12:17;4.43;;;2.15;;
48161;SDS011;33950;48.154;16.316;2023-01-16T12:18:18;5.75;;;2.15;;
48161;SDS011;33950;48.154;16.316;2023-01-16T12:21:14;10.55;;;2.60;;
48161;SDS011;33950;48.154;16.316;2023-01-16T12:24:20;5.30;;;2.58;;
48161;SDS011;33950;48.154;16.316;2023-01-16T12:27:16;5.18;;;2.30;;
48161;SDS011;33950;48.154;16.316;2023-01-16T12:30:14;4.38;;;2.28;;
48161;SDS011;33950;48.154;16.316;2023-01-16T12:33:08;5.78;;;2.72;;
48161;SDS011;33950;48.154;16.316;2023-01-16T12:36:07;4.05;;;2.20;;
48161;SDS011;33950;48.154;16.316;2023-01-16T12:39:01;2.85;;;1.90;;
48161;SDS011;33950;48.154;16.316;2023-01-16T12:41:54;4.20;;;2.17;;
48161;SDS011;33950;48.154;16.316;2023-01-16T12:45:13;5.38;;;2.10;;
48161;SDS011;33950;48.154;16.316;2023-01-16T12:48:12;4.38;;;2.53;;
48161;SDS011;33950;48.154;16.316;2023-01-16T12:51:17;3.40;;;2.42;;
48161;SDS011;33950;48.154;16.316;2023-01-16T12:57:42;5.43;;;1.92;;
48161;SDS011;33950;48.154;16.316;2023-01-16T13:00:40;3.40;;;1.30;;
48161;SDS011;33950;48.154;16.316;2023-01-16T13:03:31;5.38;;;1.10;;
48161;SDS011;33950;48.154;16.316;2023-01-16T13:06:25;6.80;;;1.65;;
48161;SDS011;33950;48.154;16.316;2023-01-16T13:09:17;6.90;;;1.42;;
48161;SDS011;33950;48.154;16.316;2023-01-16T13:12:10;5.20;;;1.45;;
48161;SDS011;33950;48.154;16.316;2023-01-16T13:15:21;4.65;;;1.25;;
48161;SDS011;33950;48.154;16.316;2023-01-16T13:18:14;1.25;;;0.88;;
48161;SDS011;33950;48.154;16.316;2023-01-16T13:23:53;7.53;;;0.98;;
48161;SDS011;33950;48.154;16.316;2023-01-16T13:26:51;4.05;;;1.25;;
48161;SDS011;33950;48.154;16.316;2023-01-16T13:29:42;3.58;;;1.00;;
48161;SDS011;33950;48.154;16.316;2023-01-16T13:32:33;4.72;;;1.02;;
48161;SDS011;33950;48.154;16.316;2023-01-16T13:35:25;1.48;;;0.75;;
48161;SDS011;33950;48.154;16.316;2023-01-16T13:41:24;7.45;;;0.70;;
48161;SDS011;33950;48.154;16.316;2023-01-16T13:44:14;2.00;;;1.60;;
48161;SDS011;33950;48.154;16.316;2023-01-16T13:47:23;1.13;;;0.75;;
48161;SDS011;33950;48.154;16.316;2023-01-16T13:50:17;2.00;;;0.90;;
48161;SDS011;33950;48.154;16.316;2023-01-16T13:53:08;1.02;;;0.85;;
48161;SDS011;33950;48.154;16.316;2023-01-16T13:56:05;1.80;;;0.70;;
48161;SDS011;33950;48.154;16.316;2023-01-16T13:58:54;6.00;;;1.38;;
48161;SDS011;33950;48.154;16.316;2023-01-16T14:01:52;2.90;;;1.20;;
48161;SDS011;33950;48.154;16.316;2023-01-16T14:04:42;4.25;;;0.93;;
48161;SDS011;33950;48.154;16.316;2023-01-16T14:08:13;2.58;;;1.33;;
48161;SDS011;33950;48.154;16.316;2023-01-16T14:11:24;4.20;;;1.35;;
48161;SDS011;33950;48.154;16.316;2023-01-16T14:18:00;2.78;;;1.20;;
48161;SDS011;33950;48.154;16.316;2023-01-16T14:20:51;5.53;;;1.75;;
48161;SDS011;33950;48.154;16.316;2023-01-16T14:23:49;2.45;;;1.50;;
48161;SDS011;33950;48.154;16.316;2023-01-16T14:26:49;2.85;;;1.90;;
48161;SDS011;33950;48.154;16.316;2023-01-16T14:29:43;3.20;;;1.85;;
48161;SDS011;33950;48.154;16.316;2023-01-16T14:32:35;2.40;;;1.50;;
48161;SDS011;33950;48.154;16.316;2023-01-16T14:35:23;2.85;;;2.00;;
48161;SDS011;33950;48.154;16.316;2023-01-16T14:38:13;7.50;;;2.35;;
48161;SDS011;33950;48.154;16.316;2023-01-16T14:41:03;5.65;;;1.85;;
48161;SDS011;33950;48.154;16.316;2023-01-16T14:44:14;3.08;;;1.77;;
48161;SDS011;33950;48.154;16.316;2023-01-16T14:47:24;3.60;;;2.05;;
48161;SDS011;33950;48.154;16.316;2023-01-16T14:50:41;5.40;;;2.35;;
48161;SDS011;33950;48.154;16.316;2023-01-16T14:53:48;3.45;;;2.10;;
48161;SDS011;33950;48.154;16.316;2023-01-16T14:56:59;4.93;;;2.22;;
48161;SDS011;33950;48.154;16.316;2023-01-16T15:02:41;7.32;;;2.22;;
48161;SDS011;33950;48.154;16.316;2023-01-16T15:05:32;3.35;;;1.88;;
48161;SDS011;33950;48.154;16.316;2023-01-16T15:08:36;5.70;;;2.50;;
48161;SDS011;33950;48.154;16.316;2023-01-16T15:11:27;4.45;;;2.08;;
48161;SDS011;33950;48.154;16.316;2023-01-16T15:14:28;3.58;;;2.13;;
48161;SDS011;33950;48.154;16.316;2023-01-16T15:17:16;6.35;;;2.70;;
48161;SDS011;33950;48.154;16.316;2023-01-16T15:20:26;7.35;;;3.13;;
48161;SDS011;33950;48.154;16.316;2023-01-16T15:23:31;8.18;;;3.30;;
48161;SDS011;33950;48.154;16.316;2023-01-16T15:26:39;4.95;;;2.53;;
48161;SDS011;33950;48.154;16.316;2023-01-16T15:29:43;15.98;;;4.35;;
48161;SDS011;33950;48.154;16.316;2023-01-16T15:32:51;7.18;;;3.80;;
48161;SDS011;33950;48.154;16.316;2023-01-16T15:35:38;4.47;;;2.90;;
48161;SDS011;33950;48.154;16.316;2023-01-16T15:38:24;12.73;;;3.72;;
48161;SDS011;33950;48.154;16.316;2023-01-16T15:41:10;4.38;;;2.92;;
48161;SDS011;33950;48.154;16.316;2023-01-16T15:43:58;5.13;;;2.92;;
48161;SDS011;33950;48.154;16.316;2023-01-16T15:47:07;5.90;;;2.95;;
48161;SDS011;33950;48.154;16.316;2023-01-16T15:50:13;7.20;;;3.22;;
48161;SDS011;33950;48.154;16.316;2023-01-16T15:53:05;6.03;;;3.50;;
48161;SDS011;33950;48.154;16.316;2023-01-16T15:55:53;5.95;;;3.20;;
48161;SDS011;33950;48.154;16.316;2023-01-16T15:58:43;6.85;;;3.30;;
48161;SDS011;33950;48.154;16.316;2023-01-16T16:01:33;6.60;;;3.25;;
48161;SDS011;33950;48.154;16.316;2023-01-16T16:04:21;6.07;;;3.10;;
48161;SDS011;33950;48.154;16.316;2023-01-16T16:07:08;7.78;;;3.47;;
48161;SDS011;33950;48.154;16.316;2023-01-16T16:09:56;7.90;;;3.83;;
48161;SDS011;33950;48.154;16.316;2023-01-16T16:12:44;6.63;;;3.45;;
48161;SDS011;33950;48.154;16.316;2023-01-16T16:15:31;5.72;;;3.05;;
48161;SDS011;33950;48.154;16.316;2023-01-16T16:18:35;8.18;;;4.05;;
48161;SDS011;33950;48.154;16.316;2023-01-16T16:21:23;11.25;;;4.07;;
48161;SDS011;33950;48.154;16.316;2023-01-16T16:24:12;14.63;;;4.38;;
48161;SDS011;33950;48.154;16.316;2023-01-16T16:26:58;8.07;;;4.05;;
48161;SDS011;33950;48.154;16.316;2023-01-16T16:29:49;12.05;;;5.40;;
48161;SDS011;33950;48.154;16.316;2023-01-16T16:32:37;8.10;;;4.53;;
48161;SDS011;33950;48.154;16.316;2023-01-16T16:35:26;7.05;;;3.75;;
48161;SDS011;33950;48.154;16.316;2023-01-16T16:38:21;10.18;;;4.13;;
48161;SDS011;33950;48.154;16.316;2023-01-16T16:45:03;11.20;;;3.70;;
48161;SDS011;33950;48.154;16.316;2023-01-16T16:51:18;7.50;;;3.70;;
48161;SDS011;33950;48.154;16.316;2023-01-16T16:54:10;10.40;;;4.28;;
48161;SDS011;33950;48.154;16.316;2023-01-16T16:57:01;6.57;;;3.67;;
48161;SDS011;33950;48.154;16.316;2023-01-16T16:59:48;8.50;;;3.38;;
48161;SDS011;33950;48.154;16.316;2023-01-16T17:02:35;6.90;;;3.78;;
48161;SDS011;33950;48.154;16.316;2023-01-16T17:05:21;10.73;;;3.75;;
48161;SDS011;33950;48.154;16.316;2023-01-16T17:08:08;8.63;;;4.18;;
48161;SDS011;33950;48.154;16.316;2023-01-16T17:11:00;11.07;;;4.82;;
48161;SDS011;33950;48.154;16.316;2023-01-16T17:13:46;8.82;;;3.83;;
48161;SDS011;33950;48.154;16.316;2023-01-16T17:16:32;7.95;;;4.22;;
48161;SDS011;33950;48.154;16.316;2023-01-16T17:19:21;8.55;;;3.50;;
48161;SDS011;33950;48.154;16.316;2023-01-16T17:22:11;7.40;;;4.13;;
48161;SDS011;33950;48.154;16.316;2023-01-16T17:24:58;10.85;;;4.70;;
48161;SDS011;33950;48.154;16.316;2023-01-16T17:27:46;8.90;;;3.88;;
48161;SDS011;33950;48.154;16.316;2023-01-16T17:30:32;7.72;;;3.50;;
48161;SDS011;33950;48.154;16.316;2023-01-16T17:33:19;7.30;;;4.45;;
48161;SDS011;33950;48.154;16.316;2023-01-16T17:36:05;8.90;;;4.15;;
48161;SDS011;33950;48.154;16.316;2023-01-16T17:38:56;6.05;;;3.75;;